Time;durP1;ratioP1;P1;durP2;ratioP2;P2;SDS_P1;SDS_P2;PMS_P1;PMS_P2;Temp;Humidity;BMP_temperature;BMP_pressure;BME280_temperature;BME280_humidity;BME280_pressure;Samples;Min_cycle;Max_cycle;Signal;HPM_P1;HPM_P2
2022/06/30 00:00:20;;;;;;;10.28;8.20;;;;;;;18.40;92.56;100437.58;1722131;83;21123;-83
2022/06/30 00:02:50;;;;;;;9.50;7.55;;;;;;;18.43;92.67;100431.21;1722039;83;20926;-83
2022/06/30 00:05:19;;;;;;;13.47;8.00;;;;;;;18.46;92.81;100416.40;1719679;83;21401;-81
2022/06/30 00:07:49;;;;;;;12.18;7.45;;;;;;;18.46;92.63;100397.82;1717843;83;21015;-82
2022/06/30 00:10:17;;;;;;;11.05;8.18;;;;;;;18.43;92.54;100390.08;1717537;83;21022;-82
2022/06/30 00:12:44;;;;;;;11.97;8.55;;;;;;;18.43;92.97;100384.77;1717766;83;21540;-83
2022/06/30 00:15:11;;;;;;;10.95;8.18;;;;;;;18.44;93.27;100379.82;1717466;83;21533;-84
2022/06/30 00:17:38;;;;;;;9.23;7.47;;;;;;;18.44;93.07;100382.47;1717739;83;21055;-82
2022/06/30 00:20:06;;;;;;;14.73;7.97;;;;;;;18.42;93.48;100371.11;1717633;83;20968;-84
2022/06/30 00:22:33;;;;;;;14.28;7.87;;;;;;;18.43;93.64;100363.53;1717693;83;21468;-84
2022/06/30 00:25:00;;;;;;;10.50;7.83;;;;;;;18.46;93.88;100344.74;1717559;83;21142;-84
2022/06/30 00:27:28;;;;;;;12.18;7.50;;;;;;;18.46;93.83;100318.20;1717783;83;21039;-83
2022/06/30 00:29:55;;;;;;;9.53;7.17;;;;;;;18.45;93.96;100302.73;1717613;83;21107;-84
2022/06/30 00:32:23;;;;;;;8.83;6.95;;;;;;;18.44;93.81;100293.09;1717917;83;20939;-84
2022/06/30 00:34:51;;;;;;;8.98;7.47;;;;;;;18.40;93.86;100249.62;1717493;83;21278;-84
2022/06/30 00:37:18;;;;;;;12.43;7.83;;;;;;;18.38;94.02;100254.20;1717717;83;21109;-84
2022/06/30 00:39:45;;;;;;;12.05;8.40;;;;;;;18.34;94.02;100266.83;1717543;83;20999;-82
2022/06/30 00:42:12;;;;;;;11.12;8.10;;;;;;;18.32;94.22;100259.93;1717993;83;21576;-84
2022/06/30 00:44:39;;;;;;;10.55;8.05;;;;;;;18.30;94.40;100264.52;1717526;83;20976;-84
2022/06/30 00:47:07;;;;;;;9.55;7.62;;;;;;;18.28;94.47;100295.13;1717576;83;21003;-84
2022/06/30 00:49:35;;;;;;;12.28;8.13;;;;;;;18.22;94.23;100322.94;1717426;83;21207;-84
2022/06/30 00:52:03;;;;;;;9.20;7.10;;;;;;;18.19;94.38;100348.84;1717493;83;21019;-84
2022/06/30 00:54:32;;;;;;;9.13;7.40;;;;;;;18.18;94.77;100363.92;1717649;83;21527;-86
2022/06/30 00:57:00;;;;;;;12.07;7.22;;;;;;;18.18;95.05;100371.88;1717641;83;22125;-86
2022/06/30 00:59:29;;;;;;;8.45;6.15;;;;;;;18.16;94.86;100387.05;1717488;83;21343;-85
2022/06/30 01:02:01;;;;;;;7.35;5.67;;;;;;;18.15;95.06;100382.70;1717680;83;21202;-87
2022/06/30 01:04:32;;;;;;;6.47;4.95;;;;;;;18.10;94.88;100378.19;1717431;83;21552;-87
2022/06/30 01:07:01;;;;;;;7.03;4.35;;;;;;;18.05;94.90;100343.17;1717442;83;20976;-86
2022/06/30 01:15:02;;;;;;;4.45;3.87;;;;;;;17.96;95.39;100316.81;1717632;83;21788;-85
2022/06/30 01:17:30;;;;;;;5.20;3.87;;;;;;;17.99;95.87;100320.58;1717645;83;21056;-86
2022/06/30 01:19:59;;;;;;;3.67;2.98;;;;;;;18.02;96.12;100338.08;1717499;83;21015;-86
2022/06/30 01:22:27;;;;;;;5.78;3.33;;;;;;;18.03;95.96;100338.44;1717684;83;21488;-85
2022/06/30 01:24:54;;;;;;;6.03;3.55;;;;;;;17.98;95.78;100353.33;1717680;83;21066;-84
2022/06/30 01:27:21;;;;;;;5.45;4.92;;;;;;;17.96;95.86;100361.89;1717607;83;21269;-86
2022/06/30 01:29:50;;;;;;;4.10;3.27;;;;;;;17.92;95.83;100336.52;1717609;83;21019;-87
2022/06/30 01:32:18;;;;;;;5.35;3.15;;;;;;;17.92;95.99;100351.59;1717548;83;20975;-88
2022/06/30 01:34:45;;;;;;;3.87;2.72;;;;;;;17.91;96.25;100364.01;1717559;83;20976;-87
2022/06/30 01:37:13;;;;;;;5.30;3.50;;;;;;;17.91;96.25;100381.73;1717653;83;21016;-86
2022/06/30 01:39:41;;;;;;;5.10;3.08;;;;;;;17.89;96.25;100391.09;1717819;83;21331;-85
2022/06/30 01:42:10;;;;;;;5.10;3.65;;;;;;;17.88;96.44;100377.48;1716757;83;21023;-88
2022/06/30 01:44:37;;;;;;;5.95;3.90;;;;;;;17.88;96.62;100371.33;1717790;83;20995;-85
2022/06/30 01:47:05;;;;;;;6.25;3.37;;;;;;;17.89;96.82;100358.44;1717516;83;21031;-88
2022/06/30 01:49:32;;;;;;;4.95;3.40;;;;;;;17.91;97.06;100354.73;1717558;83;21031;-87
2022/06/30 01:52:00;;;;;;;7.30;3.85;;;;;;;17.87;96.63;100334.66;1717523;83;21149;-88
2022/06/30 01:54:27;;;;;;;7.72;4.00;;;;;;;17.85;96.71;100314.05;1717589;83;21022;-85
2022/06/30 01:56:54;;;;;;;5.00;3.75;;;;;;;17.85;96.99;100295.50;1717645;83;21047;-86
2022/06/30 01:59:22;;;;;;;6.00;3.67;;;;;;;17.87;97.29;100285.61;1717495;83;21034;-86
2022/06/30 02:01:49;;;;;;;7.53;3.90;;;;;;;17.87;97.12;100286.09;1717529;83;21536;-88
2022/06/30 02:07:02;;;;;;;6.35;4.33;;;;;;;17.82;97.23;100277.16;1721890;83;21058;-88
2022/06/30 02:09:30;;;;;;;7.10;4.10;;;;;;;17.79;97.26;100287.48;1722128;83;21073;-87
2022/06/30 02:14:58;;;;;;;5.55;4.03;;;;;;;17.82;97.85;100255.45;1721725;83;20999;-89
2022/06/30 05:12:06;;;;;;;5.25;4.75;;;;;;;18.68;100.00;100359.98;1692386;80;21091;-82
2022/06/30 05:14:34;;;;;;;4.85;4.45;;;;;;;18.71;100.00;100365.08;1697164;84;21158;-83
2022/06/30 05:17:01;;;;;;;5.12;4.62;;;;;;;18.72;100.00;100362.78;1697162;83;21048;-83
2022/06/30 05:19:28;;;;;;;5.25;4.75;;;;;;;18.71;100.00;100363.75;1697049;83;21579;-84
2022/06/30 05:21:55;;;;;;;7.55;5.25;;;;;;;18.69;100.00;100359.86;1697287;82;21576;-85
2022/06/30 05:27:07;;;;;;;6.12;5.37;;;;;;;18.70;100.00;100352.73;1697316;82;21129;-86
2022/06/30 05:29:34;;;;;;;6.35;5.75;;;;;;;18.70;100.00;100350.92;1697066;83;21004;-84
2022/06/30 05:32:01;;;;;;;7.20;6.22;;;;;;;18.71;100.00;100347.81;1697251;83;21088;-86
2022/06/30 05:34:28;;;;;;;6.92;6.22;;;;;;;18.75;100.00;100357.77;1697116;83;20921;-86
2022/06/30 05:36:55;;;;;;;7.62;6.70;;;;;;;18.79;100.00;100368.06;1697109;82;21533;-86
2022/06/30 05:39:22;;;;;;;7.15;6.33;;;;;;;18.81;100.00;100366.13;1697460;82;21068;-85
2022/06/30 05:41:49;;;;;;;7.72;6.85;;;;;;;18.80;100.00;100361.78;1697331;82;21573;-86
2022/06/30 05:44:17;;;;;;;8.53;7.08;;;;;;;18.80;100.00;100360.94;1696944;82;21294;-86
2022/06/30 05:46:44;;;;;;;8.45;7.33;;;;;;;18.80;100.00;100357.80;1697248;82;21009;-85
2022/06/30 05:49:11;;;;;;;7.53;6.72;;;;;;;18.84;100.00;100360.59;1697320;83;21037;-86
2022/06/30 05:51:38;;;;;;;9.95;7.42;;;;;;;18.90;100.00;100361.50;1696941;83;21127;-86
2022/06/30 05:54:05;;;;;;;8.40;7.12;;;;;;;18.93;100.00;100363.09;1697208;83;21032;-87
2022/06/30 05:56:32;;;;;;;8.60;7.80;;;;;;;18.93;100.00;100363.09;1697241;82;21052;-80
2022/06/30 05:58:59;;;;;;;9.75;7.50;;;;;;;18.97;100.00;100359.23;1696941;82;21036;-83
2022/06/30 06:01:26;;;;;;;8.48;7.28;;;;;;;18.99;100.00;100362.63;1696974;82;21092;-84
2022/06/30 06:03:53;;;;;;;10.60;7.53;;;;;;;19.03;100.00;100363.25;1697309;82;21782;-87
2022/06/30 06:06:20;;;;;;;8.48;7.30;;;;;;;19.10;100.00;100363.18;1696988;82;21032;-82
2022/06/30 06:08:47;;;;;;;9.45;7.28;;;;;;;19.16;100.00;100368.04;1697279;83;21032;-82
2022/06/30 06:11:14;;;;;;;8.25;7.45;;;;;;;19.17;100.00;100368.39;1697016;82;21016;-79
2022/06/30 06:13:42;;;;;;;7.28;6.60;;;;;;;19.16;100.00;100359.58;1697003;82;21482;-84
2022/06/30 06:16:09;;;;;;;8.13;6.70;;;;;;;19.19;100.00;100365.16;1696938;82;21972;-85
2022/06/30 06:18:36;;;;;;;9.05;7.65;;;;;;;19.21;100.00;100373.03;1697124;83;20988;-87
2022/06/30 06:21:03;;;;;;;8.65;7.45;;;;;;;19.22;100.00;100381.35;1696970;82;21518;-87
2022/06/30 06:23:30;;;;;;;8.43;7.33;;;;;;;19.23;100.00;100375.06;1697263;83;21032;-86
2022/06/30 06:25:57;;;;;;;8.88;6.75;;;;;;;19.26;100.00;100375.71;1697052;83;21127;-84
2022/06/30 06:31:11;;;;;;;8.53;7.00;;;;;;;19.34;100.00;100388.41;1697018;83;21013;-87
2022/06/30 06:33:38;;;;;;;7.95;6.85;;;;;;;19.38;100.00;100388.08;1698174;82;21068;-85
2022/06/30 06:36:06;;;;;;;7.72;6.78;;;;;;;19.42;100.00;100380.72;1700124;82;21075;-88
2022/06/30 06:38:33;;;;;;;7.45;6.83;;;;;;;19.48;100.00;100377.62;1700309;82;21027;-83
2022/06/30 06:41:00;;;;;;;8.00;6.60;;;;;;;19.48;100.00;100376.30;1700568;82;21134;-83
2022/06/30 06:43:27;;;;;;;7.22;6.53;;;;;;;19.50;100.00;100374.34;1699119;83;21039;-85
2022/06/30 06:45:55;;;;;;;8.15;7.35;;;;;;;19.58;100.00;100376.44;1699553;82;21042;-78
2022/06/30 06:48:22;;;;;;;9.93;7.67;;;;;;;19.67;100.00;100380.25;1699387;82;21564;-80
2022/06/30 06:50:49;;;;;;;8.35;7.25;;;;;;;19.75;100.00;100387.16;1698714;82;21050;-82
2022/06/30 06:53:16;;;;;;;7.50;6.67;;;;;;;19.81;100.00;100377.38;1695147;84;21144;-83
2022/06/30 06:55:43;;;;;;;8.73;6.80;;;;;;;19.87;100.00;100378.73;1700384;83;21094;-83
2022/06/30 06:58:10;;;;;;;7.75;7.05;;;;;;;19.94;100.00;100382.14;1700497;83;20990;-82
2022/06/30 07:00:37;;;;;;;7.50;6.72;;;;;;;20.00;100.00;100374.17;1700181;83;21029;-82
2022/06/30 07:03:04;;;;;;;8.83;7.10;;;;;;;20.10;100.00;100372.99;1687308;82;21052;-82
2022/06/30 07:05:32;;;;;;;8.75;7.85;;;;;;;20.21;100.00;100374.34;1677395;82;21506;-82
2022/06/30 07:08:01;;;;;;;8.03;6.65;;;;;;;20.28;100.00;100367.09;1678562;82;21030;-82
2022/06/30 07:10:28;;;;;;;7.92;6.62;;;;;;;20.35;100.00;100360.80;1675552;82;21057;-82
2022/06/30 07:12:56;;;;;;;7.60;6.90;;;;;;;20.39;100.00;100360.06;1688979;82;21474;-82
2022/06/30 07:15:23;;;;;;;8.35;6.45;;;;;;;20.46;100.00;100363.95;1694929;84;21518;-82
2022/06/30 07:17:50;;;;;;;6.87;6.28;;;;;;;20.56;100.00;100368.08;1688332;82;21201;-82
2022/06/30 07:20:17;;;;;;;8.05;7.03;;;;;;;20.63;100.00;100370.62;1692079;84;21032;-82
2022/06/30 07:22:44;;;;;;;7.28;6.53;;;;;;;20.71;100.00;100371.70;1705214;84;21049;-82
2022/06/30 07:25:12;;;;;;;7.30;6.60;;;;;;;20.78;100.00;100364.55;1705295;84;21035;-82
2022/06/30 07:27:40;;;;;;;7.17;6.47;;;;;;;20.83;100.00;100362.36;1705270;84;21107;-81
2022/06/30 07:30:09;;;;;;;8.60;6.28;;;;;;;20.88;100.00;100362.84;1705226;84;21962;-82
2022/06/30 07:32:37;;;;;;;6.92;6.22;;;;;;;20.93;100.00;100364.66;1705336;84;21072;-83
2022/06/30 07:35:06;;;;;;;6.78;5.58;;;;;;;21.00;100.00;100367.66;1705204;84;21033;-82
2022/06/30 07:37:39;;;;;;;7.12;5.95;;;;;;;21.03;100.00;100368.25;1705344;84;20964;-82
2022/06/30 07:40:07;;;;;;;7.28;6.12;;;;;;;21.06;100.00;100366.69;1704558;84;21032;-82
2022/06/30 07:42:35;;;;;;;8.05;5.92;;;;;;;21.10;100.00;100359.28;1705433;84;21126;-82
2022/06/30 07:45:04;;;;;;;6.60;5.65;;;;;;;21.16;99.80;100366.77;1705064;84;21004;-82
2022/06/30 07:47:32;;;;;;;7.15;6.12;;;;;;;21.18;99.79;100367.50;1705562;84;21028;-82
2022/06/30 07:50:33;;;;;;;6.17;5.58;;;;;;;21.23;99.83;100368.44;1705292;84;21075;-81
2022/06/30 07:52:53;;;;;;;6.53;5.80;;;;;;;21.29;99.38;100366.13;1665442;85;21507;-82
2022/06/30 07:55:20;;;;;;;6.45;5.75;;;;;;;21.39;99.66;100368.90;1673988;85;21143;-84
2022/06/30 07:57:48;;;;;;;8.38;5.90;;;;;;;21.48;99.76;100369.98;1674122;85;21055;-83
2022/06/30 08:00:18;;;;;;;6.58;5.95;;;;;;;21.56;99.33;100359.48;1673898;85;21104;-84
2022/06/30 08:02:45;;;;;;;6.80;5.83;;;;;;;21.66;99.58;100361.75;1673884;85;21630;-78
2022/06/30 08:05:12;;;;;;;5.95;5.35;;;;;;;21.73;98.70;100358.09;1674099;85;21031;-81
2022/06/30 08:07:40;;;;;;;6.40;5.80;;;;;;;21.79;98.34;100360.24;1673955;85;21170;-78
2022/06/30 08:10:10;;;;;;;7.47;5.37;;;;;;;21.83;98.10;100362.50;1674267;85;21503;-81
2022/06/30 08:12:37;;;;;;;5.65;5.12;;;;;;;21.87;97.83;100356.44;1673272;85;21055;-81
2022/06/30 08:15:06;;;;;;;6.40;5.62;;;;;;;21.80;96.47;100360.59;1671178;84;21023;-82
2022/06/30 08:17:33;;;;;;;5.60;5.10;;;;;;;21.81;96.81;100361.80;1671042;85;21544;-82
2022/06/30 08:20:00;;;;;;;6.75;5.70;;;;;;;21.82;96.31;100359.48;1671358;85;21762;-81
2022/06/30 08:22:28;;;;;;;7.70;5.85;;;;;;;21.89;96.63;100357.62;1670902;84;21111;-80
2022/06/30 08:24:57;;;;;;;6.97;6.10;;;;;;;21.93;96.53;100357.23;1671016;85;21580;-80
2022/06/30 08:27:24;;;;;;;6.62;6.00;;;;;;;22.00;96.88;100358.88;1671068;85;21614;-81
2022/06/30 08:29:51;;;;;;;6.03;5.42;;;;;;;22.04;96.72;100354.50;1671089;84;21043;-80
2022/06/30 08:32:18;;;;;;;5.85;5.25;;;;;;;22.18;97.37;100350.67;1674249;85;21147;-81
2022/06/30 08:34:45;;;;;;;6.58;5.95;;;;;;;22.31;96.69;100349.59;1671965;85;21102;-81
2022/06/30 08:37:13;;;;;;;11.10;6.15;;;;;;;22.40;97.00;100346.14;1670942;84;21480;-81
2022/06/30 08:42:27;;;;;;;8.98;6.55;;;;;;;22.67;97.52;100327.67;1655354;85;21050;-81
2022/06/30 08:47:42;;;;;;;8.90;5.97;;;;;;;22.91;96.71;100331.30;1656492;85;20939;-81
2022/06/30 08:50:11;;;;;;;6.60;5.87;;;;;;;23.01;96.22;100334.03;1670900;84;21050;-81
2022/06/30 08:52:55;;;;;;;7.60;6.55;;;;;;;23.06;95.48;100337.64;1671360;85;21050;-81
2022/06/30 08:55:30;;;;;;;6.22;5.62;;;;;;;23.09;94.97;100342.70;1670519;84;21087;-81
2022/06/30 08:58:06;;;;;;;6.35;5.65;;;;;;;23.16;94.58;100342.48;1671197;85;21903;-78
2022/06/30 09:00:36;;;;;;;7.05;6.10;;;;;;;23.30;94.50;100346.07;1670875;84;21035;-87
2022/06/30 09:03:05;;;;;;;6.72;6.10;;;;;;;23.46;94.27;100339.33;1671298;85;21083;-81
2022/06/30 09:05:34;;;;;;;6.90;6.33;;;;;;;23.63;93.99;100343.95;1670935;84;21047;-79
2022/06/30 09:08:03;;;;;;;7.17;6.47;;;;;;;23.79;93.91;100334.88;1671286;84;21043;-81
2022/06/30 09:10:30;;;;;;;8.85;8.05;;;;;;;23.97;94.17;100326.97;1670935;85;21988;-82
2022/06/30 09:13:04;;;;;;;8.10;7.40;;;;;;;24.13;93.39;100326.34;1653000;85;21513;-79
2022/06/30 09:15:36;;;;;;;11.93;7.15;;;;;;;24.33;93.25;100327.60;1696862;83;21040;-76
2022/06/30 09:18:04;;;;;;;8.50;7.33;;;;;;;24.62;93.41;100323.49;1696894;84;21013;-79
2022/06/30 09:20:37;;;;;;;10.37;9.03;;;;;;;24.80;92.13;100324.34;1697081;82;21021;-81
2022/06/30 09:23:30;;;;;;;8.65;7.85;;;;;;;24.95;91.38;100328.72;1697025;82;21299;-80
2022/06/30 09:26:00;;;;;;;11.75;8.75;;;;;;;25.06;91.02;100325.81;1697548;82;21097;-82
2022/06/30 09:28:41;;;;;;;9.38;8.38;;;;;;;25.26;90.29;100327.88;1697460;82;21557;-83
2022/06/30 09:31:13;;;;;;;9.48;8.45;;;;;;;25.35;89.45;100325.60;1690535;82;21391;-78
2022/06/30 09:33:47;;;;;;;9.13;8.23;;;;;;;25.44;88.74;100320.30;1699708;83;21474;-82
2022/06/30 09:36:27;;;;;;;8.65;7.87;;;;;;;25.55;88.74;100317.38;1700256;82;21515;-82
2022/06/30 09:39:09;;;;;;;10.93;9.85;;;;;;;25.71;88.54;100325.55;1700186;83;21005;-84
2022/06/30 09:41:41;;;;;;;10.30;9.20;;;;;;;25.89;87.52;100328.75;1700305;82;21040;-81
2022/06/30 09:44:23;;;;;;;10.30;9.30;;;;;;;25.98;87.09;100323.27;1700798;83;21014;-83
2022/06/30 09:47:10;;;;;;;10.28;9.28;;;;;;;26.06;86.35;100322.98;1699357;83;21029;-81
2022/06/30 09:49:45;;;;;;;10.43;9.28;;;;;;;26.07;84.95;100320.62;1700285;83;21203;-80
2022/06/30 09:52:26;;;;;;;10.23;9.18;;;;;;;26.02;84.13;100321.95;1698031;82;21047;-82
2022/06/30 09:55:13;;;;;;;9.60;8.65;;;;;;;26.00;83.90;100321.27;1700816;83;21167;-80
2022/06/30 09:57:45;;;;;;;8.65;7.85;;;;;;;26.01;83.59;100324.28;1698911;82;20998;-82
2022/06/30 10:00:18;;;;;;;8.93;7.87;;;;;;;26.19;83.75;100324.23;1700652;82;21085;-81
2022/06/30 10:02:48;;;;;;;16.30;8.78;;;;;;;26.29;83.40;100321.92;1698163;82;21133;-81
2022/06/30 10:05:19;;;;;;;8.88;7.97;;;;;;;26.30;82.36;100324.45;1700485;83;21021;-83
2022/06/30 10:07:47;;;;;;;8.90;8.08;;;;;;;26.21;81.61;100319.52;1700282;82;21523;-81
2022/06/30 10:10:17;;;;;;;8.18;7.40;;;;;;;26.21;81.63;100322.20;1700613;83;21033;-81
2022/06/30 10:12:45;;;;;;;8.48;7.58;;;;;;;26.28;81.62;100319.73;1700173;82;21042;-81
2022/06/30 10:15:15;;;;;;;10.82;7.95;;;;;;;26.32;81.21;100317.56;1689972;82;21122;-80
2022/06/30 10:17:55;;;;;;;8.93;8.03;;;;;;;26.35;80.74;100318.58;1691386;82;21011;-84
2022/06/30 10:20:23;;;;;;;8.28;7.35;;;;;;;26.44;80.50;100318.98;1694442;82;21044;-80
2022/06/30 10:22:50;;;;;;;10.23;8.60;;;;;;;26.49;80.34;100317.97;1702627;83;21096;-81
2022/06/30 10:25:18;;;;;;;18.42;10.60;;;;;;;26.52;79.99;100310.95;1702718;82;21064;-80
2022/06/30 10:27:50;;;;;;;11.17;8.87;;;;;;;26.72;80.04;100308.86;1702710;82;21123;-82
2022/06/30 10:30:23;;;;;;;28.23;12.82;;;;;;;26.98;79.69;100303.86;1702780;82;21510;-81
2022/06/30 10:33:20;;;;;;;20.12;10.70;;;;;;;27.16;79.00;100303.27;1702490;83;21032;-80
2022/06/30 10:35:53;;;;;;;9.68;7.00;;;;;;;27.26;78.20;100302.57;1631867;87;21087;-80
2022/06/30 10:38:46;;;;;;;10.70;7.42;;;;;;;27.47;77.30;100301.25;1681648;83;21055;-81
2022/06/30 10:41:17;;;;;;;38.65;15.70;;;;;;;27.66;76.41;100296.86;1701919;82;21511;-82
2022/06/30 10:44:09;;;;;;;51.28;16.23;;;;;;;27.74;75.54;100291.94;1702384;82;21085;-80
2022/06/30 10:46:57;;;;;;;42.70;14.55;;;;;;;27.66;74.79;100283.88;1702938;83;21040;-79
2022/06/30 10:49:27;;;;;;;37.35;14.25;;;;;;;27.52;74.38;100293.48;1702504;82;21052;-79
2022/06/30 10:51:59;;;;;;;11.22;8.10;;;;;;;27.41;74.35;100287.09;1702738;82;21040;-80
2022/06/30 10:54:34;;;;;;;9.95;7.92;;;;;;;27.42;74.64;100282.91;1698631;83;22000;-81
2022/06/30 10:57:02;;;;;;;8.20;7.30;;;;;;;27.41;74.37;100273.64;1702675;82;21044;-80
2022/06/30 10:59:36;;;;;;;7.75;7.00;;;;;;;27.46;74.07;100280.19;1702400;83;21533;-80
2022/06/30 11:02:15;;;;;;;6.83;6.22;;;;;;;27.44;73.74;100276.86;1702690;82;20960;-80
2022/06/30 11:04:48;;;;;;;8.05;6.80;;;;;;;27.42;73.39;100283.41;1702684;82;21009;-80
2022/06/30 11:07:24;;;;;;;6.83;5.90;;;;;;;27.33;72.68;100276.69;1702735;82;21117;-81
2022/06/30 11:09:58;;;;;;;6.22;5.70;;;;;;;27.44;72.79;100279.55;1702396;83;21051;-80
2022/06/30 11:12:37;;;;;;;6.42;5.83;;;;;;;27.55;72.02;100277.02;1702749;83;21627;-81
2022/06/30 11:15:03;;;;;;;6.30;5.75;;;;;;;27.56;72.19;100275.99;1681290;84;21442;-79
2022/06/30 11:17:34;;;;;;;6.67;6.00;;;;;;;27.56;71.91;100274.14;1687785;84;21513;-82
2022/06/30 11:20:09;;;;;;;8.05;6.12;;;;;;;27.77;72.25;100270.08;1687638;84;21967;-80
2022/06/30 11:22:38;;;;;;;7.15;5.65;;;;;;;28.15;72.18;100259.03;1687601;84;21117;-79
2022/06/30 11:27:17;;;;;;;5.75;5.22;;;;;;;28.26;71.37;100267.23;1688083;84;21033;-79
2022/06/30 11:27:44;;;;;;;5.80;5.20;;;;;;;28.36;70.95;100269.73;1683903;84;21057;-80
2022/06/30 11:30:12;;;;;;;6.67;5.45;;;;;;;28.69;70.41;100269.92;1687783;84;21475;-80
2022/06/30 11:32:39;;;;;;;7.47;5.50;;;;;;;28.74;69.44;100265.84;1687944;84;21237;-80
2022/06/30 11:35:08;;;;;;;5.65;5.15;;;;;;;28.82;69.24;100269.35;1687622;84;21533;-79
2022/06/30 11:37:35;;;;;;;7.20;5.87;;;;;;;29.05;69.35;100268.55;1687795;84;21066;-80
2022/06/30 11:40:08;;;;;;;7.50;6.00;;;;;;;29.30;68.87;100265.14;1687714;84;21045;-79
2022/06/30 11:42:36;;;;;;;6.40;5.42;;;;;;;29.27;67.45;100260.94;1687907;84;21026;-83
2022/06/30 11:45:07;;;;;;;8.85;5.33;;;;;;;29.36;67.53;100263.05;1687760;84;21144;-80
2022/06/30 11:47:34;;;;;;;5.72;5.22;;;;;;;29.51;67.03;100261.72;1683931;84;21037;-79
2022/06/30 11:50:01;;;;;;;5.40;4.87;;;;;;;29.54;66.65;100262.70;1687706;84;21053;-80
2022/06/30 11:52:41;;;;;;;6.15;5.08;;;;;;;29.62;65.87;100258.57;1687896;84;21096;-80
2022/06/30 11:55:12;;;;;;;;;;;;;;;29.79;65.62;100257.92;1690296;84;21052;-79
2022/06/30 11:57:43;;;;;;;4.58;4.17;;;;;;;29.63;64.16;100256.25;1687945;84;21187;-80
2022/06/30 12:00:17;;;;;;;6.03;4.60;;;;;;;29.49;64.40;100259.73;1687563;84;21025;-80
2022/06/30 12:02:46;;;;;;;5.17;4.15;;;;;;;29.41;64.42;100263.34;1672188;84;21009;-80
2022/06/30 12:05:17;;;;;;;4.85;3.90;;;;;;;29.65;64.88;100261.45;1687822;84;21069;-80
2022/06/30 12:07:46;;;;;;;5.45;4.37;;;;;;;30.07;64.81;100256.78;1687929;84;21263;-80
2022/06/30 12:10:18;;;;;;;5.95;4.62;;;;;;;30.34;63.12;100270.14;1687648;84;21980;-80
2022/06/30 12:12:45;;;;;;;4.42;4.00;;;;;;;30.39;62.84;100265.00;1687909;84;21007;-80
2022/06/30 12:15:16;;;;;;;5.47;4.17;;;;;;;30.56;62.89;100264.27;1694193;82;21013;-80
2022/06/30 12:17:47;;;;;;;4.35;3.95;;;;;;;30.87;62.69;100264.03;1696908;82;21022;-80
2022/06/30 12:20:16;;;;;;;4.45;4.05;;;;;;;31.05;61.98;100265.45;1696907;82;21028;-80
2022/06/30 12:22:47;;;;;;;5.83;4.40;;;;;;;31.01;60.94;100260.95;1696945;82;21150;-81
2022/06/30 12:25:16;;;;;;;5.08;4.58;;;;;;;30.99;60.94;100263.52;1697905;82;21085;-80
2022/06/30 12:27:49;;;;;;;4.67;4.28;;;;;;;31.04;60.45;100260.55;1696622;82;21045;-79
2022/06/30 12:30:24;;;;;;;5.20;4.70;;;;;;;31.13;60.51;100257.72;1660075;83;21045;-79
2022/06/30 12:33:20;;;;;;;6.45;4.65;;;;;;;31.35;60.16;100255.30;1700248;83;21278;-80
2022/06/30 12:35:38;;;;;;;5.40;4.17;;;;;;;31.46;59.28;100253.44;1679863;83;20996;-78
2022/06/30 12:38:16;;;;;;;5.87;4.50;;;;;;;31.64;58.87;100253.45;1700015;82;21034;-79
2022/06/30 12:40:44;;;;;;;4.72;4.22;;;;;;;31.83;58.29;100245.97;1699803;83;21084;-79
2022/06/30 12:43:11;;;;;;;4.90;4.05;;;;;;;31.90;57.32;100244.63;1700159;82;21017;-79
2022/06/30 12:45:52;;;;;;;5.47;4.20;;;;;;;31.97;57.41;100237.42;1707577;82;21440;-79
2022/06/30 12:48:54;;;;;;;4.78;4.10;;;;;;;32.09;57.37;100243.10;1686431;82;21959;-78
2022/06/30 12:51:36;;;;;;;4.55;4.15;;;;;;;32.25;57.00;100238.69;1708108;82;20988;-78
2022/06/30 12:54:10;;;;;;;4.42;4.03;;;;;;;32.33;56.08;100239.88;1679467;82;21034;-79
2022/06/30 12:56:40;;;;;;;5.28;3.85;;;;;;;32.33;56.02;100234.97;1672625;83;20969;-77
2022/06/30 12:59:16;;;;;;;5.35;4.22;;;;;;;32.37;55.68;100231.66;1674935;82;21089;-78
2022/06/30 13:01:46;;;;;;;4.62;3.95;;;;;;;32.09;54.99;100233.09;1673018;83;21125;-77
2022/06/30 13:04:26;;;;;;;6.62;4.33;;;;;;;31.89;55.31;100232.96;1673605;82;21132;-78
2022/06/30 13:06:56;;;;;;;4.33;3.75;;;;;;;31.95;55.01;100232.71;1673034;82;21041;-78
2022/06/30 13:09:26;;;;;;;5.15;3.98;;;;;;;31.97;54.62;100226.05;1674887;82;20938;-77
2022/06/30 13:11:57;;;;;;;3.30;2.98;;;;;;;32.05;54.24;100226.94;1672789;83;21102;-80
2022/06/30 13:14:29;;;;;;;3.67;2.85;;;;;;;32.17;53.79;100232.92;1676589;82;21251;-82
2022/06/30 13:17:00;;;;;;;4.67;2.92;;;;;;;32.36;53.78;100224.55;1680534;83;21018;-78
2022/06/30 13:19:28;;;;;;;4.78;3.12;;;;;;;32.59;53.32;100219.31;1682569;83;21042;-77
2022/06/30 13:21:55;;;;;;;5.20;3.08;;;;;;;32.76;53.01;100221.13;1687668;84;20929;-78
2022/06/30 13:24:23;;;;;;;3.90;2.70;;;;;;;32.96;52.93;100225.24;1705248;84;21032;-78
2022/06/30 13:26:52;;;;;;;4.03;2.95;;;;;;;33.05;51.62;100217.23;1705614;84;22180;-78
2022/06/30 13:29:20;;;;;;;;;;;;;;;33.14;51.21;100211.89;1707787;84;21494;-81
2022/06/30 13:31:48;;;;;;;4.03;2.83;;;;;;;33.22;50.23;100217.11;1705908;84;20910;-81
2022/06/30 13:34:15;;;;;;;5.72;2.35;;;;;;;33.23;50.63;100217.45;1705516;84;21035;-79
2022/06/30 13:36:44;;;;;;;6.20;2.50;;;;;;;33.26;49.86;100217.03;1706660;84;21013;-83
2022/06/30 13:39:11;;;;;;;3.92;2.60;;;;;;;33.28;49.46;100216.80;1708145;82;21204;-82
2022/06/30 13:41:40;;;;;;;4.28;2.50;;;;;;;33.13;48.96;100214.31;1708327;82;21017;-83
2022/06/30 13:44:08;;;;;;;3.22;2.55;;;;;;;32.88;48.65;100214.89;1708242;82;28144;-82
2022/06/30 13:46:37;;;;;;;3.95;2.70;;;;;;;32.85;48.46;100210.41;1708534;82;21569;-81
2022/06/30 13:49:08;;;;;;;7.12;2.70;;;;;;;32.86;48.61;100207.99;1708334;84;21015;-80
2022/06/30 13:51:36;;;;;;;3.33;2.60;;;;;;;32.86;48.35;100206.63;1708362;84;21107;-82
2022/06/30 13:54:04;;;;;;;4.00;2.55;;;;;;;32.73;48.33;100207.47;1708298;82;21025;-84
2022/06/30 13:56:32;;;;;;;4.53;2.50;;;;;;;32.56;48.21;100205.64;1708354;82;21036;-80
2022/06/30 13:59:00;;;;;;;3.33;2.50;;;;;;;32.41;48.09;100205.79;1707997;83;21063;-80
2022/06/30 14:01:28;;;;;;;3.05;2.67;;;;;;;32.42;47.83;100203.37;1708038;84;21036;-80
2022/06/30 14:03:56;;;;;;;3.55;2.60;;;;;;;32.32;47.93;100199.41;1708183;82;21240;-81
2022/06/30 14:06:23;;;;;;;4.12;2.80;;;;;;;32.38;48.08;100191.81;1714986;82;27567;-78
2022/06/30 14:08:51;;;;;;;3.42;2.60;;;;;;;32.48;47.65;100194.14;1688312;82;21017;-81
2022/06/30 14:11:18;;;;;;;2.42;2.22;;;;;;;32.48;47.80;100192.30;1696482;83;21030;-80
2022/06/30 14:13:45;;;;;;;3.65;2.80;;;;;;;32.51;47.56;100193.73;1687877;84;21092;-80
2022/06/30 14:16:12;;;;;;;3.45;2.55;;;;;;;32.58;47.60;100192.71;1688260;82;21192;-80
2022/06/30 14:18:41;;;;;;;4.50;2.80;;;;;;;32.75;47.49;100181.47;1681537;83;21038;-78
2022/06/30 14:21:09;;;;;;;2.50;2.22;;;;;;;32.78;47.30;100183.23;1696964;82;21049;-79
2022/06/30 14:23:36;;;;;;;3.42;2.83;;;;;;;32.69;47.13;100183.66;1700321;83;21041;-82
2022/06/30 14:26:03;;;;;;;3.50;2.60;;;;;;;32.63;47.17;100178.53;1700594;82;21539;-81
2022/06/30 14:28:30;;;;;;;3.05;2.72;;;;;;;32.63;47.04;100182.61;1693524;82;21969;-82
2022/06/30 14:30:57;;;;;;;3.80;2.75;;;;;;;32.63;47.15;100178.01;1698718;83;21035;-82
2022/06/30 14:33:25;;;;;;;5.80;3.00;;;;;;;32.56;46.90;100174.96;1696845;83;21054;-82
2022/06/30 14:35:52;;;;;;;3.60;2.73;;;;;;;32.43;46.89;100177.11;1698946;82;21031;-85
2022/06/30 14:38:19;;;;;;;4.37;2.90;;;;;;;32.36;47.10;100172.19;1697006;83;21007;-83
2022/06/30 14:40:46;;;;;;;4.10;3.02;;;;;;;32.26;47.14;100180.72;1698694;83;21076;-82
2022/06/30 14:43:15;;;;;;;6.70;4.62;;;;;;;32.22;47.19;100174.84;1697834;83;21496;-84
2022/06/30 14:45:42;;;;;;;5.90;3.17;;;;;;;32.20;47.24;100181.02;1698540;83;21479;-82
2022/06/30 14:48:09;;;;;;;4.15;2.70;;;;;;;32.07;46.96;100180.14;1698483;83;21599;-82
2022/06/30 14:50:36;;;;;;;5.08;2.85;;;;;;;32.11;46.99;100174.61;1697203;82;21023;-82